Time;durP1;ratioP1;P1;durP2;ratioP2;P2;SDS_P1;SDS_P2;PMS_P1;PMS_P2;Temp;Humidity;BMP_temperature;BMP_pressure;BME280_temperature;BME280_humidity;BME280_pressure;Samples;Min_cycle;Max_cycle;Signal;HPM_P1;HPM_P2
2020/12/11 00:02:04;;;;;;;151.75;40.05;;;;;;;;;;5050401;28;20050;-83
2020/12/11 00:04:33;;;;;;;138.23;39.47;;;;;;;;;;5050093;28;20040;-83
2020/12/11 00:07:02;;;;;;;149.57;41.53;;;;;;;;;;5044891;28;20053;-84
2020/12/11 00:09:31;;;;;;;151.00;41.45;;;;;;;;;;5048336;28;20406;-83
2020/12/11 00:11:57;;;;;;;143.60;39.90;;;;;;;;;;5041048;28;20045;-83
2020/12/11 00:14:23;;;;;;;125.85;37.22;;;;;;;;;;5035118;28;20053;-83
2020/12/11 00:16:49;;;;;;;143.20;38.47;;;;;;;;;;5034969;28;20064;-83
2020/12/11 00:19:16;;;;;;;131.65;39.13;;;;;;;;;;5035971;28;20107;-83
2020/12/11 00:21:42;;;;;;;138.15;40.35;;;;;;;;;;5035927;28;20059;-83
2020/12/11 00:24:09;;;;;;;144.70;39.35;;;;;;;;;;5034827;28;20049;-83
2020/12/11 00:26:35;;;;;;;139.68;41.20;;;;;;;;;;5036498;28;20136;-83
2020/12/11 00:29:02;;;;;;;127.45;39.50;;;;;;;;;;5036436;28;20235;-83
2020/12/11 00:31:28;;;;;;;134.50;38.33;;;;;;;;;;5036644;28;20093;-83
2020/12/11 00:33:54;;;;;;;121.18;39.75;;;;;;;;;;5034103;28;20054;-83
2020/12/11 00:36:21;;;;;;;127.22;38.55;;;;;;;;;;5035537;28;20053;-83
2020/12/11 00:38:47;;;;;;;132.48;40.10;;;;;;;;;;5035460;28;20056;-83
2020/12/11 00:41:14;;;;;;;118.93;37.28;;;;;;;;;;5036263;28;20072;-83
2020/12/11 00:43:40;;;;;;;127.60;38.25;;;;;;;;;;5055895;28;20144;-83
2020/12/11 00:46:06;;;;;;;135.63;40.22;;;;;;;;;;5055497;28;20178;-83
2020/12/11 00:48:33;;;;;;;126.93;37.55;;;;;;;;;;5040140;28;20443;-83
2020/12/11 00:50:59;;;;;;;128.23;39.38;;;;;;;;;;5056925;28;20099;-83
2020/12/11 00:53:25;;;;;;;130.20;39.85;;;;;;;;;;5056105;28;20061;-84
2020/12/11 00:55:55;;;;;;;118.05;38.20;;;;;;;;;;5039005;28;20060;-84
2020/12/11 00:58:21;;;;;;;121.40;37.88;;;;;;;;;;5040701;28;20417;-84
2020/12/11 01:00:50;;;;;;;115.03;36.40;;;;;;;;;;5040159;28;20103;-84
2020/12/11 01:03:24;;;;;;;111.70;37.53;;;;;;;;;;5055699;28;20076;-83
2020/12/11 01:05:51;;;;;;;115.35;36.15;;;;;;;;;;5056628;28;20063;-83
2020/12/11 01:08:29;;;;;;;101.93;36.60;;;;;;;;;;5060593;28;20092;-83
2020/12/11 01:10:55;;;;;;;105.88;35.55;;;;;;;;;;5067607;28;20505;-84
2020/12/11 01:13:21;;;;;;;112.40;36.90;;;;;;;;;;5055360;28;20181;-84
2020/12/11 01:15:50;;;;;;;107.57;35.83;;;;;;;;;;5058135;28;20064;-84
2020/12/11 01:18:33;;;;;;;100.80;35.78;;;;;;;;;;5057086;28;20141;-84
2020/12/11 01:21:05;;;;;;;114.00;37.00;;;;;;;;;;5039597;28;20178;-84
2020/12/11 01:23:34;;;;;;;105.78;34.78;;;;;;;;;;5057187;28;20055;-84
2020/12/11 01:26:00;;;;;;;119.72;37.10;;;;;;;;;;5055471;28;20060;-83
2020/12/11 01:28:26;;;;;;;109.43;37.88;;;;;;;;;;5038972;28;20348;-84
2020/12/11 01:30:52;;;;;;;108.45;37.15;;;;;;;;;;5056494;28;20097;-83
2020/12/11 01:33:24;;;;;;;106.28;36.13;;;;;;;;;;5039075;28;20401;-84
2020/12/11 01:35:51;;;;;;;103.72;32.67;;;;;;;;;;5055249;28;20063;-84
2020/12/11 01:38:27;;;;;;;94.32;34.50;;;;;;;;;;5056902;28;20063;-83
2020/12/11 01:41:02;;;;;;;100.55;34.45;;;;;;;;;;5039005;28;20131;-84
2020/12/11 01:43:29;;;;;;;106.78;33.72;;;;;;;;;;5056300;28;20103;-84
2020/12/11 01:46:01;;;;;;;112.97;37.22;;;;;;;;;;5056970;28;20095;-84
2020/12/11 01:48:28;;;;;;;107.15;36.60;;;;;;;;;;5042159;28;20088;-83
2020/12/11 01:50:57;;;;;;;104.82;36.70;;;;;;;;;;5059310;28;20053;-84
2020/12/11 01:53:30;;;;;;;96.90;33.00;;;;;;;;;;5059581;28;20044;-83
2020/12/11 01:55:58;;;;;;;107.13;35.08;;;;;;;;;;5060682;28;20421;-84
2020/12/11 01:58:34;;;;;;;97.50;34.60;;;;;;;;;;5043777;28;20057;-83
2020/12/11 02:01:04;;;;;;;93.45;33.42;;;;;;;;;;5063986;28;20059;-83
2020/12/11 02:03:30;;;;;;;105.18;33.95;;;;;;;;;;5062827;28;20049;-84
2020/12/11 02:05:57;;;;;;;93.25;33.33;;;;;;;;;;5044415;28;20059;-84
2020/12/11 02:08:24;;;;;;;94.82;33.33;;;;;;;;;;5044254;28;20130;-83
2020/12/11 02:10:53;;;;;;;96.57;33.45;;;;;;;;;;5061033;28;20162;-84
2020/12/11 02:13:32;;;;;;;101.55;34.25;;;;;;;;;;5044265;28;20053;-83
2020/12/11 02:16:01;;;;;;;105.70;33.72;;;;;;;;;;5043251;28;20106;-84
2020/12/11 02:18:27;;;;;;;83.20;33.70;;;;;;;;;;5043166;28;20057;-84
2020/12/11 02:21:02;;;;;;;94.18;36.20;;;;;;;;;;5061003;28;20087;-84
2020/12/11 02:23:28;;;;;;;106.03;35.75;;;;;;;;;;5043338;28;20131;-84
2020/12/11 02:25:56;;;;;;;93.60;33.22;;;;;;;;;;5043048;28;20075;-83
2020/12/11 02:28:35;;;;;;;88.25;33.28;;;;;;;;;;5061328;28;20199;-84
2020/12/11 02:31:01;;;;;;;;;;;;;;;;;;5044275;28;20064;-84
2020/12/11 02:33:33;;;;;;;91.97;30.55;;;;;;;;;;5040894;28;19921;-83
2020/12/11 02:36:03;;;;;;;87.50;33.67;;;;;;;;;;5058351;28;20060;-84
2020/12/11 02:38:32;;;;;;;95.43;32.58;;;;;;;;;;5042570;28;20053;-84
2020/12/11 02:41:02;;;;;;;92.50;32.35;;;;;;;;;;5060232;28;20045;-84
2020/12/11 02:43:29;;;;;;;89.18;33.30;;;;;;;;;;5059358;28;20112;-84
2020/12/11 02:45:55;;;;;;;86.80;32.67;;;;;;;;;;5042486;28;20467;-84
2020/12/11 02:48:23;;;;;;;85.90;31.23;;;;;;;;;;5060268;28;20049;-84
2020/12/11 02:50:53;;;;;;;84.65;32.65;;;;;;;;;;5043414;28;20056;-84
2020/12/11 02:53:19;;;;;;;97.93;33.40;;;;;;;;;;5043148;28;20128;-84
2020/12/11 02:55:45;;;;;;;94.53;34.95;;;;;;;;;;5043059;28;20075;-83
2020/12/11 02:58:11;;;;;;;82.32;33.08;;;;;;;;;;5044077;28;20052;-83
2020/12/11 03:00:38;;;;;;;86.22;32.20;;;;;;;;;;5045097;28;20049;-84
2020/12/11 03:03:04;;;;;;;90.78;35.10;;;;;;;;;;5061196;28;20049;-84
2020/12/11 03:05:30;;;;;;;86.93;31.02;;;;;;;;;;5060635;28;20463;-84
2020/12/11 03:07:56;;;;;;;78.63;31.70;;;;;;;;;;5044079;28;20067;-83
2020/12/11 03:10:23;;;;;;;92.65;33.65;;;;;;;;;;5043074;28;20314;-83
2020/12/11 03:12:49;;;;;;;81.55;32.55;;;;;;;;;;5061076;28;20492;-84
2020/12/11 03:15:30;;;;;;;85.75;30.15;;;;;;;;;;5061786;28;20049;-84
2020/12/11 03:17:57;;;;;;;78.78;29.90;;;;;;;;;;5058798;28;20049;-83
2020/12/11 03:20:23;;;;;;;80.13;30.70;;;;;;;;;;5076279;28;20033;-83
2020/12/11 03:22:51;;;;;;;83.97;29.92;;;;;;;;;;5048431;28;20055;-84
2020/12/11 03:25:17;;;;;;;78.40;30.05;;;;;;;;;;5102379;28;20040;-84
2020/12/11 03:27:44;;;;;;;87.68;31.83;;;;;;;;;;5085011;28;20071;-84
2020/12/11 03:30:11;;;;;;;81.22;30.85;;;;;;;;;;5098477;28;20040;-83
2020/12/11 03:32:38;;;;;;;81.30;31.50;;;;;;;;;;5093751;28;20052;-83
2020/12/11 03:35:07;;;;;;;83.13;31.00;;;;;;;;;;5101089;28;20063;-83
2020/12/11 03:37:36;;;;;;;87.90;33.28;;;;;;;;;;5101832;28;20048;-83
2020/12/11 03:40:05;;;;;;;85.07;32.03;;;;;;;;;;5101844;28;20048;-83
2020/12/11 03:42:32;;;;;;;84.43;30.52;;;;;;;;;;5083332;28;20052;-84
2020/12/11 03:44:59;;;;;;;74.30;31.83;;;;;;;;;;5101508;28;20063;-84
2020/12/11 03:47:28;;;;;;;78.88;30.65;;;;;;;;;;5083308;28;20055;-83
2020/12/11 03:50:02;;;;;;;82.22;31.05;;;;;;;;;;5084368;28;20349;-84
2020/12/11 03:52:31;;;;;;;81.20;29.90;;;;;;;;;;5101082;28;20083;-84
2020/12/11 03:54:59;;;;;;;80.50;30.02;;;;;;;;;;5102729;28;20048;-84
2020/12/11 03:57:31;;;;;;;74.78;29.63;;;;;;;;;;5085703;28;20052;-84
2020/12/11 03:59:57;;;;;;;74.47;29.35;;;;;;;;;;5104454;28;20059;-84
2020/12/11 04:02:25;;;;;;;75.75;29.83;;;;;;;;;;5110782;28;20448;-84
2020/12/11 04:04:51;;;;;;;71.53;27.80;;;;;;;;;;5099168;28;20065;-84
2020/12/11 04:07:22;;;;;;;84.00;30.50;;;;;;;;;;5088422;28;20051;-83
2020/12/11 04:09:51;;;;;;;75.00;30.60;;;;;;;;;;5101703;28;20055;-84
2020/12/11 04:12:29;;;;;;;76.60;29.75;;;;;;;;;;5102371;28;20331;-84
2020/12/11 04:14:55;;;;;;;79.55;29.77;;;;;;;;;;5083478;28;20382;-84
2020/12/11 04:17:21;;;;;;;74.05;28.25;;;;;;;;;;5100518;28;20054;-84
2020/12/11 04:19:51;;;;;;;67.75;27.88;;;;;;;;;;5101119;28;20048;-83
2020/12/11 04:22:19;;;;;;;73.65;29.00;;;;;;;;;;5099968;28;20040;-84
2020/12/11 04:24:55;;;;;;;77.25;29.90;;;;;;;;;;5079188;28;20147;-83
2020/12/11 04:27:26;;;;;;;77.28;30.75;;;;;;;;;;5080073;28;20048;-84
2020/12/11 04:29:55;;;;;;;78.82;30.95;;;;;;;;;;5078095;28;20044;-84
2020/12/11 04:32:24;;;;;;;79.38;32.63;;;;;;;;;;5077914;28;20059;-84
2020/12/11 04:34:53;;;;;;;66.63;30.63;;;;;;;;;;5079164;28;20059;-83
2020/12/11 04:37:22;;;;;;;72.60;28.48;;;;;;;;;;5075576;28;20405;-83
2020/12/11 04:39:48;;;;;;;67.15;27.67;;;;;;;;;;5058882;28;20345;-83
2020/12/11 04:42:24;;;;;;;67.50;26.30;;;;;;;;;;5059651;28;20044;-83
2020/12/11 04:44:53;;;;;;;65.57;29.38;;;;;;;;;;5060747;28;20088;-83
2020/12/11 04:47:38;;;;;;;81.57;30.02;;;;;;;;;;5060097;28;20554;-84
2020/12/11 04:50:05;;;;;;;73.13;31.23;;;;;;;;;;5060531;28;20201;-84
2020/12/11 04:52:37;;;;;;;74.03;29.23;;;;;;;;;;5056746;28;20059;-84
2020/12/11 04:55:11;;;;;;;77.75;30.20;;;;;;;;;;5055986;28;20064;-84
2020/12/11 04:57:48;;;;;;;83.75;31.15;;;;;;;;;;5058631;28;20053;-84
2020/12/11 05:00:15;;;;;;;77.82;30.65;;;;;;;;;;5059743;28;20053;-83
2020/12/11 05:02:46;;;;;;;70.07;30.17;;;;;;;;;;5058119;28;20060;-84
2020/12/11 05:05:13;;;;;;;70.32;27.90;;;;;;;;;;5059038;28;20252;-84
2020/12/11 05:07:44;;;;;;;62.88;27.55;;;;;;;;;;5057633;28;20110;-83
2020/12/11 05:10:15;;;;;;;69.60;27.33;;;;;;;;;;5058692;28;20045;-83
2020/12/11 05:13:18;;;;;;;73.13;28.13;;;;;;;;;;5057261;28;20045;-83
2020/12/11 05:16:15;;;;;;;73.03;27.58;;;;;;;;;;5059314;28;20063;-83
2020/12/11 05:18:45;;;;;;;66.05;26.27;;;;;;;;;;5058082;28;20045;-83
2020/12/11 05:21:33;;;;;;;65.75;26.50;;;;;;;;;;5059027;28;20049;-83
2020/12/11 05:24:08;;;;;;;59.47;24.90;;;;;;;;;;5047519;28;20049;-83
2020/12/11 05:27:04;;;;;;;58.53;24.40;;;;;;;;;;5062575;28;20049;-83
2020/12/11 05:29:40;;;;;;;52.65;23.58;;;;;;;;;;5061166;28;20049;-83
2020/12/11 05:32:15;;;;;;;55.97;25.40;;;;;;;;;;5062539;28;20049;-84
2020/12/11 05:35:03;;;;;;;55.92;25.20;;;;;;;;;;5063574;28;20060;-82
2020/12/11 05:38:04;;;;;;;;;;;;;;;;;;;;;
2020/12/11 05:40:49;;;;;;;59.70;25.20;;;;;;;;;;5059190;28;20052;-83
2020/12/11 05:43:28;;;;;;;58.88;24.88;;;;;;;;;;5058406;28;20053;-82
2020/12/11 05:46:00;;;;;;;55.70;24.38;;;;;;;;;;5057586;28;20529;-82
2020/12/11 05:48:45;;;;;;;56.25;24.40;;;;;;;;;;5057460;28;20068;-82
2020/12/11 05:51:14;;;;;;;57.50;24.80;;;;;;;;;;5057483;28;20049;-82
2020/12/11 05:53:48;;;;;;;58.80;24.90;;;;;;;;;;5058121;28;20180;-82
2020/12/11 05:56:27;;;;;;;55.60;23.45;;;;;;;;;;5058792;28;20378;-82
2020/12/11 05:58:54;;;;;;;;;;;;;;;;;;5077343;28;20051;-82
2020/12/11 06:01:30;;;;;;;59.25;24.13;;;;;;;;;;5062779;28;19931;-82
2020/12/11 06:04:03;;;;;;;59.40;24.30;;;;;;;;;;5057601;28;20413;-83
2020/12/11 06:06:35;;;;;;;55.53;24.40;;;;;;;;;;5059628;28;20353;-82
2020/12/11 06:09:04;;;;;;;52.97;24.73;;;;;;;;;;5068679;28;20056;-83
2020/12/11 06:11:44;;;;;;;57.33;26.23;;;;;;;;;;5076944;28;20079;-83
2020/12/11 06:14:27;;;;;;;54.97;24.77;;;;;;;;;;5077228;28;20078;-83
2020/12/11 06:16:59;;;;;;;58.67;25.55;;;;;;;;;;5059507;28;20113;-82
2020/12/11 06:19:26;;;;;;;54.38;25.15;;;;;;;;;;5058252;28;20044;-83
2020/12/11 06:22:00;;;;;;;57.65;24.45;;;;;;;;;;5058438;28;20055;-83
2020/12/11 06:25:08;;;;;;;58.97;25.27;;;;;;;;;;5087408;28;20197;-83
2020/12/11 06:27:37;;;;;;;57.00;26.52;;;;;;;;;;5080827;28;20292;-82
2020/12/11 06:30:29;;;;;;;54.97;23.63;;;;;;;;;;5097541;28;20056;-82
2020/12/11 06:32:55;;;;;;;54.53;26.20;;;;;;;;;;5090897;28;20434;-83
2020/12/11 06:35:22;;;;;;;59.30;26.10;;;;;;;;;;5074559;28;20121;-83
2020/12/11 06:37:48;;;;;;;54.88;24.20;;;;;;;;;;5068963;28;20064;-83
2020/12/11 06:40:15;;;;;;;53.90;24.88;;;;;;;;;;5085481;28;20379;-84
2020/12/11 06:42:42;;;;;;;60.72;24.85;;;;;;;;;;5062694;28;20455;-82
2020/12/11 06:45:18;;;;;;;50.92;23.77;;;;;;;;;;5075022;28;20064;-82
2020/12/11 06:48:10;;;;;;;48.30;24.27;;;;;;;;;;5062689;28;20214;-83
2020/12/11 06:51:02;;;;;;;52.72;23.15;;;;;;;;;;5069362;28;20051;-83
2020/12/11 06:53:55;;;;;;;46.85;22.58;;;;;;;;;;5072610;28;20058;-82
2020/12/11 06:56:43;;;;;;;49.85;23.15;;;;;;;;;;5081224;28;20058;-82
2020/12/11 06:59:22;;;;;;;52.92;24.35;;;;;;;;;;5086285;28;20052;-82
2020/12/11 07:01:50;;;;;;;51.45;24.15;;;;;;;;;;5081679;28;20047;-83
2020/12/11 07:04:19;;;;;;;52.03;24.20;;;;;;;;;;5094657;28;20099;-84
2020/12/11 07:06:51;;;;;;;47.03;23.35;;;;;;;;;;5088512;28;20058;-83
2020/12/11 07:09:21;;;;;;;49.58;23.90;;;;;;;;;;5066989;28;20067;-83
2020/12/11 07:11:52;;;;;;;45.92;22.60;;;;;;;;;;5063709;28;20059;-82
2020/12/11 07:14:27;;;;;;;48.15;22.08;;;;;;;;;;5070876;28;20127;-84
2020/12/11 07:17:28;;;;;;;49.40;22.90;;;;;;;;;;5083704;28;20044;-83
2020/12/11 07:20:08;;;;;;;50.78;23.10;;;;;;;;;;5095054;28;20079;-83
2020/12/11 07:22:37;;;;;;;43.08;20.05;;;;;;;;;;5093965;28;20044;-83
2020/12/11 07:25:03;;;;;;;48.80;23.10;;;;;;;;;;5034672;28;20046;-82
2020/12/11 07:27:32;;;;;;;46.88;21.20;;;;;;;;;;5051891;28;20045;-83
2020/12/11 07:30:03;;;;;;;42.60;21.83;;;;;;;;;;5048326;28;20059;-83
2020/12/11 07:32:41;;;;;;;44.53;21.77;;;;;;;;;;5053908;28;20102;-83
2020/12/11 07:35:08;;;;;;;45.25;21.60;;;;;;;;;;5057205;28;20052;-83
2020/12/11 07:37:47;;;;;;;42.03;20.77;;;;;;;;;;5065417;28;20053;-83
2020/12/11 07:40:13;;;;;;;43.33;21.88;;;;;;;;;;5067492;28;20044;-84
2020/12/11 07:42:42;;;;;;;44.70;20.38;;;;;;;;;;5056442;28;20057;-83
2020/12/11 07:45:24;;;;;;;44.65;20.65;;;;;;;;;;5051647;28;20095;-83
2020/12/11 07:47:55;;;;;;;43.78;21.00;;;;;;;;;;5044471;28;20045;-83
2020/12/11 07:50:26;;;;;;;43.00;20.27;;;;;;;;;;5050327;28;20341;-83
2020/12/11 07:52:54;;;;;;;45.42;21.50;;;;;;;;;;5056102;28;20088;-84
2020/12/11 07:55:26;;;;;;;41.08;20.67;;;;;;;;;;5044311;28;20041;-83
2020/12/11 07:57:53;;;;;;;44.95;21.65;;;;;;;;;;5048834;28;20113;-82
2020/12/11 08:00:20;;;;;;;45.47;22.85;;;;;;;;;;5035319;28;20124;-83
2020/12/11 08:02:56;;;;;;;54.17;23.80;;;;;;;;;;5035724;28;20045;-83
2020/12/11 08:05:24;;;;;;;52.80;23.67;;;;;;;;;;5045949;28;20041;-84
2020/12/11 08:07:51;;;;;;;55.33;24.52;;;;;;;;;;5063772;28;20108;-84
2020/12/11 08:10:21;;;;;;;55.75;25.40;;;;;;;;;;5060997;28;20136;-83
2020/12/11 08:12:48;;;;;;;58.45;24.38;;;;;;;;;;5061176;28;20155;-83
2020/12/11 08:15:29;;;;;;;61.53;24.58;;;;;;;;;;5064042;28;20053;-83
2020/12/11 08:18:25;;;;;;;63.25;26.02;;;;;;;;;;5042436;28;20063;-83
2020/12/11 08:20:59;;;;;;;57.72;24.77;;;;;;;;;;5065692;28;20336;-83
2020/12/11 08:23:35;;;;;;;58.10;25.98;;;;;;;;;;5067370;28;20071;-83
2020/12/11 08:26:06;;;;;;;60.67;25.73;;;;;;;;;;5060890;28;20274;-83
2020/12/11 08:28:39;;;;;;;58.38;25.25;;;;;;;;;;5056924;28;20040;-83
2020/12/11 08:31:13;;;;;;;50.22;24.08;;;;;;;;;;5078266;28;20041;-82
2020/12/11 08:33:39;;;;;;;54.92;23.02;;;;;;;;;;5058774;28;20212;-83
2020/12/11 08:36:16;;;;;;;58.25;24.92;;;;;;;;;;5060519;28;20052;-82
2020/12/11 08:38:43;;;;;;;51.45;23.88;;;;;;;;;;5062141;28;20041;-82
2020/12/11 08:41:28;;;;;;;63.05;26.52;;;;;;;;;;5056189;28;20053;-84
2020/12/11 08:43:58;;;;;;;58.67;25.42;;;;;;;;;;5061739;28;20053;-83
2020/12/11 08:46:55;;;;;;;59.60;25.33;;;;;;;;;;5056311;28;20099;-83
2020/12/11 08:49:47;;;;;;;60.30;23.48;;;;;;;;;;5062141;28;20052;-82
2020/12/11 08:52:14;;;;;;;55.47;24.90;;;;;;;;;;5064128;28;20383;-83
2020/12/11 08:54:42;;;;;;;55.00;25.73;;;;;;;;;;5072508;28;20079;-84
2020/12/11 08:57:12;;;;;;;57.53;25.80;;;;;;;;;;5064386;28;20049;-83
2020/12/11 08:59:41;;;;;;;52.88;23.50;;;;;;;;;;5060280;28;20375;-83
2020/12/11 09:02:08;;;;;;;51.47;23.40;;;;;;;;;;5058948;28;20051;-83
2020/12/11 09:04:34;;;;;;;52.42;23.65;;;;;;;;;;5066053;28;20109;-83
2020/12/11 09:07:04;;;;;;;45.17;21.40;;;;;;;;;;5058188;28;20080;-83
2020/12/11 09:09:32;;;;;;;53.90;24.23;;;;;;;;;;5060455;28;20067;-83
2020/12/11 09:12:04;;;;;;;49.45;21.80;;;;;;;;;;5053674;28;20045;-83
2020/12/11 09:14:33;;;;;;;51.08;22.98;;;;;;;;;;5053631;28;20049;-83
2020/12/11 09:17:01;;;;;;;43.60;20.85;;;;;;;;;;5073860;28;20052;-83
2020/12/11 09:19:33;;;;;;;56.85;22.92;;;;;;;;;;5068552;28;20056;-83
2020/12/11 09:22:05;;;;;;;50.50;21.83;;;;;;;;;;5065346;28;20051;-82
2020/12/11 09:24:40;;;;;;;44.67;22.05;;;;;;;;;;5089792;28;20201;-82
2020/12/11 09:27:12;;;;;;;48.08;22.33;;;;;;;;;;5082644;28;20108;-83
2020/12/11 09:29:42;;;;;;;42.10;21.08;;;;;;;;;;5074823;28;20044;-83
2020/12/11 09:32:16;;;;;;;45.30;20.95;;;;;;;;;;5063311;28;20086;-82
2020/12/11 09:34:43;;;;;;;44.80;21.25;;;;;;;;;;5093677;28;20197;-83
2020/12/11 09:37:09;;;;;;;47.92;21.65;;;;;;;;;;5062535;28;20052;-84
2020/12/11 09:39:38;;;;;;;41.83;20.83;;;;;;;;;;5067374;28;20066;-83
2020/12/11 09:42:23;;;;;;;43.13;19.63;;;;;;;;;;5073647;28;20078;-83
2020/12/11 09:45:05;;;;;;;44.70;21.17;;;;;;;;;;5096175;28;20059;-83
2020/12/11 09:48:00;;;;;;;45.47;20.13;;;;;;;;;;5077939;28;20067;-84
2020/12/11 09:50:41;;;;;;;41.53;20.73;;;;;;;;;;5062358;28;20060;-83
2020/12/11 09:55:48;;;;;;;38.72;20.30;;;;;;;;;;5083283;28;20047;-83
2020/12/11 09:58:20;;;;;;;39.28;19.88;;;;;;;;;;5084728;28;20079;-83
2020/12/11 10:00:54;;;;;;;38.42;19.30;;;;;;;;;;5065431;28;20040;-83
2020/12/11 10:03:29;;;;;;;36.10;17.85;;;;;;;;;;5067310;28;20039;-82
2020/12/11 10:05:58;;;;;;;41.17;19.47;;;;;;;;;;5061859;28;20438;-84
2020/12/11 10:08:26;;;;;;;38.85;18.83;;;;;;;;;;5068981;28;20539;-83
2020/12/11 10:10:53;;;;;;;34.47;18.35;;;;;;;;;;5089068;28;20055;-83
2020/12/11 10:13:20;;;;;;;37.63;17.67;;;;;;;;;;5076392;28;20275;-84
2020/12/11 10:15:46;;;;;;;36.05;19.55;;;;;;;;;;5090393;28;20055;-83
2020/12/11 10:18:14;;;;;;;32.00;18.30;;;;;;;;;;5070154;28;20125;-83
2020/12/11 10:20:42;;;;;;;30.95;17.20;;;;;;;;;;5076230;28;20024;-83
2020/12/11 10:23:10;;;;;;;38.15;19.00;;;;;;;;;;5088218;28;20130;-83
2020/12/11 10:25:39;;;;;;;30.00;16.17;;;;;;;;;;5084862;28;20076;-83
2020/12/11 10:28:08;;;;;;;27.40;16.60;;;;;;;;;;5096137;28;20066;-83
2020/12/11 10:30:37;;;;;;;33.35;17.67;;;;;;;;;;5063550;28;20064;-83
2020/12/11 10:33:03;;;;;;;35.97;19.80;;;;;;;;;;5069245;28;20311;-83
2020/12/11 10:35:30;;;;;;;29.40;17.77;;;;;;;;;;5087962;28;20260;-83
2020/12/11 10:37:56;;;;;;;31.65;17.65;;;;;;;;;;5091064;28;20283;-83
2020/12/11 10:40:26;;;;;;;34.85;18.33;;;;;;;;;;5071268;28;20314;-83
2020/12/11 10:43:01;;;;;;;35.88;18.42;;;;;;;;;;5071733;28;20052;-83
2020/12/11 10:45:28;;;;;;;36.22;18.63;;;;;;;;;;5055473;28;20324;-84
2020/12/11 10:48:05;;;;;;;31.48;17.48;;;;;;;;;;5074637;28;20052;-83
2020/12/11 10:50:34;;;;;;;32.22;17.38;;;;;;;;;;5065841;28;20102;-83
2020/12/11 10:53:04;;;;;;;32.47;17.20;;;;;;;;;;5074547;28;20079;-83
2020/12/11 10:55:30;;;;;;;30.38;17.90;;;;;;;;;;5089774;28;20142;-83
2020/12/11 10:57:57;;;;;;;24.70;15.75;;;;;;;;;;5075161;28;20056;-83
2020/12/11 11:00:24;;;;;;;33.70;18.00;;;;;;;;;;5073823;28;20044;-83
2020/12/11 11:02:52;;;;;;;31.40;17.73;;;;;;;;;;5074111;28;20273;-83
2020/12/11 11:05:21;;;;;;;31.85;17.35;;;;;;;;;;5078683;28;20056;-84
2020/12/11 11:08:00;;;;;;;28.23;16.63;;;;;;;;;;5080485;28;20074;-82
2020/12/11 11:10:34;;;;;;;30.63;17.55;;;;;;;;;;5064416;28;20056;-82
2020/12/11 11:15:53;;;;;;;25.67;15.07;;;;;;;;;;5081698;28;20154;-83
2020/12/11 11:28:19;;;;;;;29.08;14.93;;;;;;;;;;5081220;28;20060;-82
2020/12/11 11:30:45;;;;;;;31.67;16.58;;;;;;;;;;5076839;28;20620;-83
2020/12/11 11:33:16;;;;;;;30.40;18.13;;;;;;;;;;5065334;28;20045;-82
2020/12/11 11:35:46;;;;;;;28.80;15.48;;;;;;;;;;5061511;28;20056;-82
2020/12/11 11:38:14;;;;;;;29.38;16.10;;;;;;;;;;5064666;28;20105;-83
2020/12/11 11:40:40;;;;;;;29.85;16.50;;;;;;;;;;5067735;28;20059;-84
2020/12/11 11:43:15;;;;;;;30.15;16.05;;;;;;;;;;5078650;28;20094;-82
2020/12/11 11:45:47;;;;;;;25.70;15.25;;;;;;;;;;5077792;28;20045;-83
2020/12/11 11:48:18;;;;;;;27.30;14.65;;;;;;;;;;5082604;28;20044;-83
2020/12/11 11:51:03;;;;;;;31.98;16.48;;;;;;;;;;5079888;28;20055;-83
2020/12/11 11:53:37;;;;;;;28.60;15.55;;;;;;;;;;5077306;28;20067;-84
2020/12/11 11:56:11;;;;;;;27.85;14.25;;;;;;;;;;5062681;28;20052;-82
2020/12/11 11:58:40;;;;;;;29.52;15.80;;;;;;;;;;5079247;28;20066;-82
2020/12/11 12:01:14;;;;;;;31.13;16.17;;;;;;;;;;5064467;28;20120;-82
2020/12/11 12:03:51;;;;;;;30.60;15.77;;;;;;;;;;5090200;28;20335;-82
2020/12/11 12:06:35;;;;;;;27.80;16.30;;;;;;;;;;5064165;28;20054;-83
2020/12/11 12:09:20;;;;;;;27.92;16.50;;;;;;;;;;5090496;28;20443;-83
2020/12/11 12:11:48;;;;;;;28.45;14.55;;;;;;;;;;5061759;28;20080;-82
2020/12/11 12:14:22;;;;;;;27.67;14.55;;;;;;;;;;5072797;28;20052;-83
2020/12/11 12:16:59;;;;;;;28.15;14.95;;;;;;;;;;5073988;28;20123;-83
2020/12/11 12:19:36;;;;;;;26.10;15.35;;;;;;;;;;5078325;28;20087;-82
2020/12/11 12:27:26;;;;;;;27.55;15.55;;;;;;;;;;5096452;28;20127;-82
2020/12/11 12:29:57;;;;;;;28.35;15.73;;;;;;;;;;5097089;28;20055;-83
2020/12/11 12:32:26;;;;;;;24.45;14.13;;;;;;;;;;5078543;28;20044;-82
2020/12/11 12:34:56;;;;;;;26.33;15.15;;;;;;;;;;5080816;28;20047;-83
2020/12/11 12:37:31;;;;;;;27.42;14.77;;;;;;;;;;5081720;28;20054;-82
2020/12/11 12:42:46;;;;;;;28.38;14.43;;;;;;;;;;5099676;28;20037;-83
2020/12/11 12:45:32;;;;;;;27.13;14.75;;;;;;;;;;5067526;28;20053;-82
2020/12/11 12:48:00;;;;;;;24.60;13.75;;;;;;;;;;5093427;28;20059;-83
2020/12/11 12:50:28;;;;;;;25.40;14.63;;;;;;;;;;5095824;28;20072;-82
2020/12/11 12:52:56;;;;;;;26.10;14.70;;;;;;;;;;5077533;28;20600;-83
2020/12/11 12:55:48;;;;;;;27.58;15.55;;;;;;;;;;5076678;28;20062;-83
2020/12/11 12:58:19;;;;;;;24.23;13.48;;;;;;;;;;5082711;28;20325;-82
2020/12/11 13:03:30;;;;;;;27.10;14.52;;;;;;;;;;5097233;28;20139;-82
2020/12/11 13:06:12;;;;;;;25.48;15.13;;;;;;;;;;5088328;28;20180;-83
2020/12/11 13:08:53;;;;;;;28.60;14.75;;;;;;;;;;5067333;28;20586;-83
2020/12/11 13:11:24;;;;;;;26.95;14.85;;;;;;;;;;5059606;28;20067;-83
2020/12/11 13:13:53;;;;;;;28.98;16.35;;;;;;;;;;5060784;28;20059;-83
2020/12/11 13:16:25;;;;;;;33.72;16.13;;;;;;;;;;5078593;28;20071;-83
2020/12/11 13:18:52;;;;;;;29.27;15.80;;;;;;;;;;5062244;28;20102;-83
2020/12/11 13:21:24;;;;;;;32.85;15.93;;;;;;;;;;5061610;28;20044;-83
2020/12/11 13:26:46;;;;;;;34.50;16.50;;;;;;;;;;5097295;28;20056;-83
2020/12/11 13:29:13;;;;;;;30.27;15.43;;;;;;;;;;5080542;28;20138;-83
2020/12/11 13:31:44;;;;;;;34.63;15.55;;;;;;;;;;5096411;28;20116;-83
2020/12/11 13:34:14;;;;;;;34.85;17.42;;;;;;;;;;5076316;28;20049;-83
2020/12/11 13:36:44;;;;;;;34.75;17.23;;;;;;;;;;5077586;28;20336;-82
2020/12/11 13:39:15;;;;;;;34.22;16.30;;;;;;;;;;5061466;28;20044;-83
2020/12/11 13:41:46;;;;;;;35.47;17.52;;;;;;;;;;5097130;28;20048;-83
2020/12/11 13:44:15;;;;;;;33.72;16.50;;;;;;;;;;5086983;28;20056;-83
2020/12/11 13:46:56;;;;;;;31.13;16.60;;;;;;;;;;5092800;28;20037;-83
2020/12/11 13:49:23;;;;;;;38.03;16.25;;;;;;;;;;5090541;28;20044;-82
2020/12/11 13:51:54;;;;;;;32.13;16.40;;;;;;;;;;5096728;28;20115;-83
2020/12/11 13:54:24;;;;;;;35.22;16.42;;;;;;;;;;5090351;28;20048;-83
2020/12/11 13:56:50;;;;;;;35.28;17.23;;;;;;;;;;5082190;28;20052;-83
2020/12/11 13:59:18;;;;;;;37.22;18.58;;;;;;;;;;5067804;28;20095;-83
2020/12/11 14:01:49;;;;;;;34.53;15.77;;;;;;;;;;5071486;28;20102;-82
2020/12/11 14:04:24;;;;;;;38.17;17.70;;;;;;;;;;5082355;28;20063;-83
2020/12/11 14:06:53;;;;;;;37.65;17.20;;;;;;;;;;5081534;28;20151;-83
2020/12/11 14:09:22;;;;;;;38.25;17.33;;;;;;;;;;5087453;28;20048;-83
2020/12/11 14:11:49;;;;;;;35.20;16.25;;;;;;;;;;5086168;28;20044;-83
2020/12/11 14:14:15;;;;;;;36.88;17.77;;;;;;;;;;5062033;28;20048;-83
2020/12/11 14:16:48;;;;;;;37.53;18.25;;;;;;;;;;5063389;28;20102;-83
2020/12/11 14:22:26;;;;;;;39.08;18.60;;;;;;;;;;5091280;28;20285;-82
2020/12/11 14:25:19;;;;;;;33.08;17.05;;;;;;;;;;5070034;28;20059;-83
2020/12/11 14:27:49;;;;;;;37.67;17.25;;;;;;;;;;5069340;28;20079;-84
2020/12/11 14:30:34;;;;;;;37.13;16.75;;;;;;;;;;5082680;28;20054;-83
2020/12/11 14:33:04;;;;;;;44.55;19.45;;;;;;;;;;5078102;28;20562;-82
2020/12/11 14:35:30;;;;;;;41.58;17.92;;;;;;;;;;5074211;28;20059;-83
2020/12/11 14:38:16;;;;;;;43.87;20.30;;;;;;;;;;5074725;28;20044;-82
2020/12/11 14:40:51;;;;;;;45.47;18.00;;;;;;;;;;5082796;28;20052;-83
2020/12/11 14:43:32;;;;;;;47.30;18.88;;;;;;;;;;5071414;28;20147;-83
2020/12/11 14:46:00;;;;;;;43.10;19.40;;;;;;;;;;5068529;28;20045;-83
2020/12/11 14:48:31;;;;;;;48.03;20.05;;;;;;;;;;5080928;28;20321;-83
2020/12/11 14:50:58;;;;;;;45.97;18.65;;;;;;;;;;5066916;28;20087;-83
2020/12/11 14:53:26;;;;;;;50.47;21.40;;;;;;;;;;5064894;28;20060;-83
2020/12/11 14:56:01;;;;;;;50.35;20.30;;;;;;;;;;5060396;28;20053;-83
2020/12/11 14:58:27;;;;;;;48.25;19.08;;;;;;;;;;5066049;28;20057;-83
2020/12/11 15:01:20;;;;;;;46.10;19.60;;;;;;;;;;5061901;28;20459;-83
2020/12/11 15:04:00;;;;;;;43.08;18.83;;;;;;;;;;5062450;28;20075;-83
2020/12/11 15:06:33;;;;;;;51.90;21.40;;;;;;;;;;5077958;28;20052;-83
2020/12/11 15:09:02;;;;;;;47.45;19.23;;;;;;;;;;5080236;28;20044;-83
2020/12/11 15:11:34;;;;;;;50.97;21.75;;;;;;;;;;5080180;28;20054;-82
2020/12/11 15:14:03;;;;;;;45.75;21.70;;;;;;;;;;5070809;28;20044;-83
2020/12/11 15:16:45;;;;;;;54.38;21.38;;;;;;;;;;5061134;28;20103;-82